Titusville, FL

6:09 PM EDT on August 29, 2014 (GMT -0400)
Nasa Shuttle | Change Station
CLOSE
Current Station
Airport
Location: Nasa Shuttle,
Elevation: 10 ft
Nearby Weather Stations

Elev 10 ft 28.61 °N, 80.69 °W | Updated 11 minutes ago

Partly Cloudy
Partly Cloudy
79 °F
Feels Like 79 °F
N
1
Wind Variable Wind from Variable

Today
High -- | Low -- °F
--% Chance of Precip.
Yesterday
High -- | Low -- °F
Precip. -- in
6:59 AM 7:47 PM
Waxing Crescent, 17% visible
Pressure 30.06 in
Visibility 10.0 miles
Clouds Few 8000 ft
Dew Point 72 °F
Humidity 81%
Rainfall 0.00 in
Snow Depth Not available.
UV 2 out of 12
Pollen 7.10 out of 12
Air Quality Not available.
Flu Activity Not available.
METAR KTTS 292158Z AUTO VRB01KT 10SM FEW080 26/22 A3005 RMK AO2 LTG DSNT W SLP179 T02590224

More Conditions Fewer Conditions

Pressure 30.06 in
Visibility 10.0 miles
Clouds Few 8000 ft
Dew Point 72 °F
Humidity 81%
Rainfall 0.00 in
Snow Depth Not available.
UV 2 out of 12
Pollen 7.10 out of 12
Air Quality Not available.
Flu Activity Not available.
METAR KTTS 292158Z AUTO VRB01KT 10SM FEW080 26/22 A3005 RMK AO2 LTG DSNT W SLP179 T02590224

More Conditions Fewer Conditions

Nowcast | as of 5:20 PM EDT on August 29, 2014

Boundary collisions occurring over the interior this afternoon have led to scattered showers and storms across much of the I-4 corridor. Storms with locally heavy rain...frequent lightning...and gusty winds to 50 mph will be possible across this region through the early evening hours. Outflow boundaries from this activity will spark new storms further east across central and eastern Osceola...as well as Brevard...Indian River...and southeast Volusia counties over the next two hours. Individual storm motion will be slow and erratic...but the trend will be for most showers and storms to move slowly to the northeast. Additional details...including graphics are available online at: http://www.Srh.NOAA.Gov/mlb/blog.Php

×

10-Day Weather Forecast

Almanac

Astronomy

Aug. 29, 2014 Rise Set
Actual Time 6:59 AM EDT 7:47 PM EDT
Civil Twilight 6:35 AM EDT 8:12 PM EDT
Nautical Twilight 6:07 AM EDT 8:40 PM EDT
Astronomical Twilight 5:38 AM EDT 9:09 PM EDT
Moon 10:26 AM EDT 10:08 PM EDT
Length of Visible Light 13h 36m
Length of Day
12h 48m
Tomorrow will be 1m 37s shorter.
Waxing Crescent, 17% of the Moon is Illuminated
Today
Waxing Crescent
Sep 2
First Quarter
Sep 8
Full
Sep 15
Last Quarter
Sep 24
New

Today's Extremes

State Highs State Lows

Community

WunderPhotos

Upload Photos

1,748,354 photos uploaded!

Nearby

Snow Depth

Station Depth Elevation
No new snow has been reported.

Earthquake Activity

City Distance Mag. Time & Date
No recent earthquake activity has been reported nearby.
Minimum magnitude displayed is 2.5.

Coastal Water Temperatures

Place Temperature
Trident Pier, FL 86.0 °F
Fort Myers, FL 88.0 °F
Lake Worth, FL 88.0 °F

Nearby Weather Stations